F/V Louis Gaetane 2 — FO2401 — position and weather

sailwx.info

Track history (hours):
 
Tides and Currents Weather Stations Pressure Air Temp Water Temp Dewpoint Dewpoint Depression Visibility Wind Speed Wind Dir Waves Ship Positions

F/V Louis Gaetane 2

Last reported at 2017-Oct-26 05:43 UTC. Time now 2017-Dec-17 23:21 UTC.
Position N 43°19' E 004°01'.
Warning: this ship's position is 52 days out of date.

Length 25 m.

Type: Fishing. MMSI: 227913000.

Date/timePositionNaut miles runAvg speedWind from/ knotsBaromVisibWave heightAir tempDewpointWater temp
2017-Oct-26 05:43N 43°19' E 004°01'0 0.9
2017-Oct-26 05:20N 43°20' E 004°01'1 1.8
2017-Oct-26 04:52N 43°20' E 004°00'2 4.2
2017-Oct-26 04:30N 43°21' E 003°58'2 4.2
2017-Oct-26 03:59N 43°22' E 003°55'2 4.0
2017-Oct-26 03:30N 43°21' E 003°53'2 4.2
2017-Oct-26 03:00N 43°20' E 003°51'3 4.0
2017-Oct-26 02:21N 43°19' E 003°47'2 4.2
2017-Oct-26 01:57N 43°19' E 003°45'2 4.2
2017-Oct-26 01:28N 43°21' E 003°43'3 7.1
2017-Oct-26 01:00N 43°24' E 003°42'21 0.5
2017-Oct-24 05:11N 43°16' E 004°09'2 4.3
2017-Oct-24 04:49N 43°16' E 004°07'1 4.3
2017-Oct-24 04:29N 43°17' E 004°06'2 0.1
2017-Oct-23 06:59N 43°18' E 004°08'2 4.4
2017-Oct-23 06:29N 43°19' E 004°06'  
2017-Oct-20 06:59N 43°18' E 004°10'1 2.8
2017-Oct-20 06:28N 43°17' E 004°12'2 4.0
2017-Oct-20 05:54N 43°19' E 004°09'2 4.4
2017-Oct-20 05:27N 43°19' E 004°07'2 4.5
2017-Oct-20 04:54N 43°20' E 004°03'2 4.4
2017-Oct-20 04:28N 43°21' E 004°01'  
2017-Oct-17 08:37N 43°11' E 004°15'1 4.4
2017-Oct-17 08:30N 43°11' E 004°16'3 3.5
2017-Oct-17 07:33N 43°09' E 004°12'1 4.3
2017-Oct-17 07:24N 43°09' E 004°12'0 0.9
2017-Oct-17 06:59N 43°08' E 004°11'2 3.4
2017-Oct-17 06:29N 43°09' E 004°09'  
Track history (hours):
 
Tides and Currents Weather Stations Pressure Air Temp Water Temp Dewpoint Dewpoint Depression Visibility Wind Speed Wind Dir Waves Ship Positions

F/V Louis Gaetane 2

Last reported at 2017-Oct-26 05:43 UTC. Time now 2017-Dec-17 23:21 UTC.
Position N 43°19' E 004°01'.
Warning: this ship's position is 52 days out of date.

Length 25 m.

Type: Fishing. MMSI: 227913000.

Date/timePositionNaut miles runAvg speedWind from/ knotsBaromVisibWave heightAir tempDewpointWater temp
2017-Oct-26 05:43N 43°19' E 004°01'0 0.9
2017-Oct-26 05:20N 43°20' E 004°01'1 1.8
2017-Oct-26 04:52N 43°20' E 004°00'2 4.2
2017-Oct-26 04:30N 43°21' E 003°58'2 4.2
2017-Oct-26 03:59N 43°22' E 003°55'2 4.0
2017-Oct-26 03:30N 43°21' E 003°53'2 4.2
2017-Oct-26 03:00N 43°20' E 003°51'3 4.0
2017-Oct-26 02:21N 43°19' E 003°47'2 4.2
2017-Oct-26 01:57N 43°19' E 003°45'2 4.2
2017-Oct-26 01:28N 43°21' E 003°43'3 7.1
2017-Oct-26 01:00N 43°24' E 003°42'21 0.5
2017-Oct-24 05:11N 43°16' E 004°09'2 4.3
2017-Oct-24 04:49N 43°16' E 004°07'1 4.3
2017-Oct-24 04:29N 43°17' E 004°06'2 0.1
2017-Oct-23 06:59N 43°18' E 004°08'2 4.4
2017-Oct-23 06:29N 43°19' E 004°06'  
2017-Oct-20 06:59N 43°18' E 004°10'1 2.8
2017-Oct-20 06:28N 43°17' E 004°12'2 4.0
2017-Oct-20 05:54N 43°19' E 004°09'2 4.4
2017-Oct-20 05:27N 43°19' E 004°07'2 4.5
2017-Oct-20 04:54N 43°20' E 004°03'2 4.4
2017-Oct-20 04:28N 43°21' E 004°01'  
2017-Oct-17 08:37N 43°11' E 004°15'1 4.4
2017-Oct-17 08:30N 43°11' E 004°16'3 3.5
2017-Oct-17 07:33N 43°09' E 004°12'1 4.3
2017-Oct-17 07:24N 43°09' E 004°12'0 0.9
2017-Oct-17 06:59N 43°08' E 004°11'2 3.4
2017-Oct-17 06:29N 43°09' E 004°09'  

Dump ship's entire track history